Time;durP1;ratioP1;P1;durP2;ratioP2;P2;SDS_P1;SDS_P2;PMS_P1;PMS_P2;Temp;Humidity;BMP_temperature;BMP_pressure;BME280_temperature;BME280_humidity;BME280_pressure;Samples;Min_cycle;Max_cycle;Signal;HPM_P1;HPM_P2
2022/01/18 00:01:50;;;;;;;;;;;14.50;47.30;;;;;;5112062;27;20403;-63
2022/01/18 00:04:15;;;;;;;;;;;14.50;47.30;;;;;;5095291;28;20007;-63
2022/01/18 00:06:44;;;;;;;;;;;14.50;47.30;;;;;;5095439;28;19961;-63
2022/01/18 00:09:09;;;;;;;;;;;14.60;47.30;;;;;;5093425;28;19966;-63
2022/01/18 00:11:43;;;;;;;;;;;14.60;47.30;;;;;;5093883;28;19943;-63
2022/01/18 00:14:22;;;;;;;;;;;14.50;47.30;;;;;;5101956;28;19908;-64
2022/01/18 00:17:03;;;;;;;;;;;14.50;47.30;;;;;;5095198;28;19930;-63
2022/01/18 00:19:28;;;;;;;;;;;14.50;47.30;;;;;;5127711;27;19920;-63
2022/01/18 00:22:11;;;;;;;;;;;14.50;47.30;;;;;;5095152;28;20751;-63
2022/01/18 00:24:39;;;;;;;;;;;14.60;47.30;;;;;;5093353;28;19915;-64
2022/01/18 00:27:08;;;;;;;;;;;14.50;47.30;;;;;;5093741;28;19909;-63
2022/01/18 00:29:38;;;;;;;;;;;14.50;47.30;;;;;;5093661;28;20419;-63
2022/01/18 00:34:33;;;;;;;;;;;14.50;47.40;;;;;;5095007;28;19908;-63
2022/01/18 00:37:12;;;;;;;;;;;14.50;47.40;;;;;;5093674;28;19908;-63
2022/01/18 00:39:40;;;;;;;;;;;14.50;47.40;;;;;;5099991;28;19908;-63
2022/01/18 00:42:06;;;;;;;;;;;14.50;47.40;;;;;;5094615;28;19915;-63
2022/01/18 00:44:32;;;;;;;;;;;14.50;47.40;;;;;;5094640;28;19908;-63
2022/01/18 00:46:57;;;;;;;;;;;14.50;47.40;;;;;;5110337;28;19970;-63
2022/01/18 00:49:22;;;;;;;;;;;14.50;47.40;;;;;;5109974;28;19971;-63
2022/01/18 00:51:57;;;;;;;;;;;14.50;47.40;;;;;;5093225;28;19908;-63
2022/01/18 00:54:28;;;;;;;;;;;14.50;47.50;;;;;;5093954;28;19908;-63
2022/01/18 00:56:54;;;;;;;;;;;14.50;47.50;;;;;;5099947;28;19947;-63
2022/01/18 00:59:20;;;;;;;;;;;14.50;47.60;;;;;;5110055;28;19912;-63
2022/01/18 01:01:45;;;;;;;;;;;14.50;47.60;;;;;;5094496;28;19930;-63
2022/01/18 01:04:11;;;;;;;;;;;14.50;47.60;;;;;;5126882;27;19990;-63
2022/01/18 01:06:37;;;;;;;;;;;14.40;47.50;;;;;;5094211;28;19970;-63
2022/01/18 01:09:03;;;;;;;;;;;14.50;47.60;;;;;;5093580;28;19912;-63
2022/01/18 01:11:29;;;;;;;;;;;14.50;47.60;;;;;;5092879;28;19908;-63
2022/01/18 01:13:57;;;;;;;;;;;14.50;47.70;;;;;;5092652;28;20330;-63
2022/01/18 01:35:08;;;;;;;;;;;14.40;47.80;;;;;;5092615;28;19908;-63
2022/01/18 01:45:31;;;;;;;;;;;14.40;47.80;;;;;;5092496;28;19961;-63
2022/01/18 01:47:58;;;;;;;;;;;14.40;47.80;;;;;;5092034;28;19912;-63
2022/01/18 01:50:26;;;;;;;;;;;14.40;47.80;;;;;;5092070;28;20433;-63
2022/01/18 01:52:55;;;;;;;;;;;14.40;47.80;;;;;;5093398;28;19957;-64
2022/01/18 01:55:20;;;;;;;;;;;14.30;47.80;;;;;;5108863;27;19934;-64
2022/01/18 01:57:46;;;;;;;;;;;14.40;48.00;;;;;;5093305;28;19998;-63
2022/01/18 02:00:12;;;;;;;;;;;14.30;47.80;;;;;;5091784;28;19912;-63
2022/01/18 02:02:38;;;;;;;;;;;14.40;48.00;;;;;;5074909;28;20380;-63
2022/01/18 02:05:04;;;;;;;;;;;14.30;47.90;;;;;;5091674;28;19908;-63
2022/01/18 02:07:29;;;;;;;;;;;14.30;48.00;;;;;;5091954;28;19919;-63
2022/01/18 02:09:55;;;;;;;;;;;14.30;47.90;;;;;;5092598;28;20413;-63
2022/01/18 02:12:21;;;;;;;;;;;14.30;47.90;;;;;;5093037;28;19908;-63
2022/01/18 02:14:51;;;;;;;;;;;14.30;48.00;;;;;;5075053;28;19908;-63
2022/01/18 02:22:45;;;;;;;;;;;14.30;48.00;;;;;;5092154;28;20284;-63
2022/01/18 02:25:10;;;;;;;;;;;14.30;48.10;;;;;;5090961;28;19924;-63
2022/01/18 02:27:36;;;;;;;;;;;14.30;48.00;;;;;;5091528;28;19951;-63
2022/01/18 02:30:01;;;;;;;;;;;14.40;47.90;;;;;;5091321;28;20315;-63
2022/01/18 02:32:27;;;;;;;;;;;14.50;47.80;;;;;;5092716;28;19995;-63
2022/01/18 02:34:52;;;;;;;;;;;14.50;47.50;;;;;;5091611;28;19908;-63
2022/01/18 02:37:17;;;;;;;;;;;14.60;47.40;;;;;;5092493;28;19912;-63
2022/01/18 02:39:43;;;;;;;;;;;14.70;47.30;;;;;;5092142;28;19908;-63
2022/01/18 02:42:10;;;;;;;;;;;14.70;47.10;;;;;;5092769;28;19914;-63
2022/01/18 02:44:36;;;;;;;;;;;14.80;47.00;;;;;;5091235;28;19916;-63
2022/01/18 02:47:02;;;;;;;;;;;14.80;46.90;;;;;;5125334;27;20363;-63
2022/01/18 02:49:27;;;;;;;;;;;14.90;46.80;;;;;;5107867;28;20010;-63
2022/01/18 02:51:53;;;;;;;;;;;14.90;46.70;;;;;;5092359;28;20049;-63
2022/01/18 02:54:18;;;;;;;;;;;15.00;46.70;;;;;;5090564;28;19909;-63
2022/01/18 02:56:52;;;;;;;;;;;15.00;46.60;;;;;;5092357;28;19918;-63
2022/01/18 02:59:25;;;;;;;;;;;15.00;46.50;;;;;;5090941;28;19908;-63
2022/01/18 03:04:38;;;;;;;;;;;15.10;46.40;;;;;;5092237;28;19936;-63
2022/01/18 03:07:04;;;;;;;;;;;15.10;46.40;;;;;;5091125;28;19908;-63
2022/01/18 03:09:29;;;;;;;;;;;15.10;46.40;;;;;;5107740;28;20201;-63
2022/01/18 03:11:55;;;;;;;;;;;15.10;46.30;;;;;;5091069;28;19912;-63
2022/01/18 03:14:20;;;;;;;;;;;15.10;46.30;;;;;;5090964;28;19909;-63
2022/01/18 03:16:46;;;;;;;;;;;15.10;46.40;;;;;;5092251;28;20000;-63
2022/01/18 03:19:11;;;;;;;;;;;15.10;46.40;;;;;;5091911;28;19920;-63
2022/01/18 03:21:37;;;;;;;;;;;15.10;46.40;;;;;;5092288;28;19957;-63
2022/01/18 03:24:19;;;;;;;;;;;15.10;46.50;;;;;;5090538;28;19936;-63
2022/01/18 03:29:29;;;;;;;;;;;15.10;46.60;;;;;;5091839;28;20069;-63
2022/01/18 03:31:54;;;;;;;;;;;15.00;46.70;;;;;;5092066;28;19991;-63
2022/01/18 03:34:20;;;;;;;;;;;15.00;46.70;;;;;;5091987;28;19913;-63
2022/01/18 03:36:46;;;;;;;;;;;14.90;46.70;;;;;;5092120;28;19908;-63
2022/01/18 03:39:12;;;;;;;;;;;14.90;46.80;;;;;;5091466;28;19908;-63
2022/01/18 03:41:37;;;;;;;;;;;14.90;46.90;;;;;;5090815;28;19908;-63
2022/01/18 03:44:03;;;;;;;;;;;14.90;47.00;;;;;;5091665;28;19909;-63
2022/01/18 03:46:28;;;;;;;;;;;14.90;47.00;;;;;;5074911;28;19954;-63
2022/01/18 03:48:54;;;;;;;;;;;14.80;47.00;;;;;;5077271;28;19912;-63
2022/01/18 03:51:20;;;;;;;;;;;14.80;47.00;;;;;;5094566;28;19957;-63
2022/01/18 03:53:45;;;;;;;;;;;14.80;47.00;;;;;;5094021;28;20324;-63
2022/01/18 03:56:11;;;;;;;;;;;14.80;47.00;;;;;;5077658;28;19958;-64
2022/01/18 03:58:36;;;;;;;;;;;14.80;47.00;;;;;;5094130;28;19951;-63
2022/01/18 04:01:02;;;;;;;;;;;14.90;47.00;;;;;;5094253;28;19908;-63
2022/01/18 04:03:28;;;;;;;;;;;14.90;47.00;;;;;;5094149;28;20356;-64
2022/01/18 04:05:53;;;;;;;;;;;14.90;46.90;;;;;;5095389;28;20014;-63
2022/01/18 04:08:20;;;;;;;;;;;14.90;46.90;;;;;;5095251;28;19912;-64
2022/01/18 04:10:45;;;;;;;;;;;14.90;46.90;;;;;;5093595;28;19935;-63
2022/01/18 04:13:11;;;;;;;;;;;14.90;47.00;;;;;;5095288;28;20356;-63
2022/01/18 04:15:36;;;;;;;;;;;14.90;47.00;;;;;;5095136;28;19958;-64
2022/01/18 04:18:51;;;;;;;;;;;14.80;47.00;;;;;;5110634;28;19970;-63
2022/01/18 04:28:51;;;;;;;;;;;14.80;47.20;;;;;;5095135;28;19981;-63
2022/01/18 04:31:16;;;;;;;;;;;14.80;47.10;;;;;;5093686;28;19908;-63
2022/01/18 04:33:42;;;;;;;;;;;14.80;47.00;;;;;;5110298;28;19908;-63
2022/01/18 04:36:07;;;;;;;;;;;14.80;47.00;;;;;;5093643;28;19915;-63
2022/01/18 04:38:33;;;;;;;;;;;14.90;47.00;;;;;;5075973;28;19915;-63
2022/01/18 04:41:04;;;;;;;;;;;14.90;47.00;;;;;;5094325;28;19915;-63
2022/01/18 04:48:23;;;;;;;;;;;14.90;47.00;;;;;;5101142;28;19912;-63
2022/01/18 04:49:03;;;;;;;;;;;14.90;46.90;;;;;;5094067;28;19920;-63
2022/01/18 04:51:28;;;;;;;;;;;14.90;46.90;;;;;;5076359;28;19908;-63
2022/01/18 04:53:56;;;;;;;;;;;14.90;46.90;;;;;;5075355;28;19912;-63
2022/01/18 04:59:04;;;;;;;;;;;14.90;46.90;;;;;;5098894;28;20325;-63
2022/01/18 05:01:30;;;;;;;;;;;14.90;46.90;;;;;;5094208;28;19919;-63
2022/01/18 05:03:55;;;;;;;;;;;15.00;46.90;;;;;;5092831;28;19911;-63
2022/01/18 05:06:21;;;;;;;;;;;15.00;47.60;;;;;;5094048;28;19908;-63
2022/01/18 05:08:46;;;;;;;;;;;15.00;46.90;;;;;;5093546;28;19940;-63
2022/01/18 05:11:15;;;;;;;;;;;15.00;46.90;;;;;;5109583;28;19909;-63
2022/01/18 05:21:17;;;;;;;;;;;15.00;46.90;;;;;;5092986;28;19912;-63
2022/01/18 05:23:43;;;;;;;;;;;14.90;46.80;;;;;;5092383;28;19908;-63
2022/01/18 05:26:08;;;;;;;;;;;15.00;47.00;;;;;;5092398;28;20368;-63
2022/01/18 05:28:33;;;;;;;;;;;15.00;47.00;;;;;;5092271;28;20405;-64
2022/01/18 05:30:59;;;;;;;;;;;14.90;46.90;;;;;;5093737;28;19912;-63
2022/01/18 05:33:25;;;;;;;;;;;15.00;47.00;;;;;;5092653;28;19916;-63
2022/01/18 05:35:51;;;;;;;;;;;14.90;46.90;;;;;;5093616;28;20365;-63
2022/01/18 05:38:16;;;;;;;;;;;14.90;46.90;;;;;;5092445;28;19915;-64
2022/01/18 05:40:41;;;;;;;;;;;14.90;47.00;;;;;;5093035;28;19974;-63
2022/01/18 05:43:07;;;;;;;;;;;14.90;47.10;;;;;;5093399;28;19999;-64
2022/01/18 05:45:32;;;;;;;;;;;14.90;47.20;;;;;;5126127;27;19908;-64
2022/01/18 05:47:58;;;;;;;;;;;14.90;47.20;;;;;;5093636;28;19908;-63
2022/01/18 05:50:23;;;;;;;;;;;14.90;47.20;;;;;;5093003;28;19912;-63
2022/01/18 05:52:49;;;;;;;;;;;14.90;47.20;;;;;;5092022;28;20389;-63
2022/01/18 05:55:14;;;;;;;;;;;14.90;47.20;;;;;;5092755;28;20075;-63
2022/01/18 05:57:40;;;;;;;;;;;14.90;47.20;;;;;;5093145;28;19925;-63
2022/01/18 06:00:08;;;;;;;;;;;14.90;47.20;;;;;;5092984;28;19947;-63
2022/01/18 06:07:44;;;;;;;;;;;14.90;47.10;;;;;;5093049;28;19953;-64
2022/01/18 06:10:09;;;;;;;;;;;15.00;47.10;;;;;;5091056;28;19920;-64
2022/01/18 06:12:35;;;;;;;;;;;15.00;47.10;;;;;;5108382;28;19916;-63
2022/01/18 06:15:00;;;;;;;;;;;15.00;47.10;;;;;;5092864;28;19915;-63
2022/01/18 06:17:25;;;;;;;;;;;14.90;47.00;;;;;;5092637;28;19912;-63
2022/01/18 06:19:51;;;;;;;;;;;14.90;47.10;;;;;;5092652;28;19954;-63
2022/01/18 06:22:16;;;;;;;;;;;14.90;47.10;;;;;;5092653;28;20037;-64
2022/01/18 06:24:42;;;;;;;;;;;14.90;47.10;;;;;;5090945;28;19998;-63
2022/01/18 06:27:07;;;;;;;;;;;14.90;47.10;;;;;;5092480;28;19908;-63
2022/01/18 06:29:33;;;;;;;;;;;14.90;47.20;;;;;;5091138;28;19923;-63
2022/01/18 06:31:58;;;;;;;;;;;14.90;47.20;;;;;;5091284;28;19916;-63
2022/01/18 06:34:24;;;;;;;;;;;14.90;47.20;;;;;;5091060;28;19973;-64
2022/01/18 06:36:49;;;;;;;;;;;14.90;47.20;;;;;;5092842;28;20010;-64
2022/01/18 06:39:16;;;;;;;;;;;14.90;47.20;;;;;;5092082;28;19970;-64
2022/01/18 06:41:45;;;;;;;;;;;14.90;47.20;;;;;;5092666;28;20368;-64
2022/01/18 06:44:11;;;;;;;;;;;14.90;47.20;;;;;;5108293;28;19944;-63
2022/01/18 06:46:36;;;;;;;;;;;14.90;47.20;;;;;;5091233;28;19908;-66
2022/01/18 06:49:01;;;;;;;;;;;14.90;47.20;;;;;;5092172;28;19912;-64
2022/01/18 06:51:27;;;;;;;;;;;14.90;47.20;;;;;;5092208;28;20007;-63
2022/01/18 06:53:52;;;;;;;;;;;14.90;47.20;;;;;;5090560;28;19915;-63
2022/01/18 06:56:19;;;;;;;;;;;14.90;47.20;;;;;;5092290;28;19940;-63
2022/01/18 06:58:44;;;;;;;;;;;14.90;47.20;;;;;;5070690;28;20455;-63
2022/01/18 07:01:10;;;;;;;;;;;14.90;47.20;;;;;;5076800;28;20367;-63
2022/01/18 07:03:35;;;;;;;;;;;15.00;47.30;;;;;;5087419;28;19913;-63
2022/01/18 07:06:01;;;;;;;;;;;15.00;47.20;;;;;;5071962;28;19913;-63
2022/01/18 07:08:26;;;;;;;;;;;15.00;47.20;;;;;;5071570;28;20387;-63
2022/01/18 07:10:52;;;;;;;;;;;15.00;47.20;;;;;;5087698;28;20372;-63
2022/01/18 07:13:17;;;;;;;;;;;14.90;47.10;;;;;;5071942;28;19909;-63
2022/01/18 07:15:43;;;;;;;;;;;15.00;47.20;;;;;;5070320;28;20003;-63
2022/01/18 07:18:10;;;;;;;;;;;15.00;47.20;;;;;;5087275;28;19920;-63
2022/01/18 07:20:36;;;;;;;;;;;15.00;47.20;;;;;;5071511;28;19912;-63
2022/01/18 07:23:01;;;;;;;;;;;15.00;47.20;;;;;;5091070;28;19932;-63
2022/01/18 07:25:27;;;;;;;;;;;15.00;47.20;;;;;;5090886;28;19912;-64
2022/01/18 07:27:52;;;;;;;;;;;15.00;47.20;;;;;;5087755;28;19912;-63
2022/01/18 07:30:18;;;;;;;;;;;15.00;47.20;;;;;;5095712;28;19912;-63
2022/01/18 07:32:43;;;;;;;;;;;15.00;47.20;;;;;;5095686;28;19908;-63
2022/01/18 07:35:09;;;;;;;;;;;15.00;47.20;;;;;;5095686;28;19908;-63
2022/01/18 07:37:35;;;;;;;;;;;15.00;47.20;;;;;;5077659;28;20277;-63
2022/01/18 07:40:00;;;;;;;;;;;15.00;47.30;;;;;;5095290;28;19953;-64
2022/01/18 07:42:25;;;;;;;;;;;15.00;47.20;;;;;;5094290;28;19953;-63
2022/01/18 07:44:51;;;;;;;;;;;15.00;47.20;;;;;;5095684;28;19909;-63
2022/01/18 07:47:16;;;;;;;;;;;15.00;47.30;;;;;;5111015;28;19915;-63
2022/01/18 07:49:42;;;;;;;;;;;15.00;47.30;;;;;;5093940;28;20317;-63
2022/01/18 07:52:07;;;;;;;;;;;15.00;47.30;;;;;;5094036;28;19908;-63
2022/01/18 07:54:33;;;;;;;;;;;15.00;47.30;;;;;;5094884;28;19908;-63
2022/01/18 07:56:58;;;;;;;;;;;15.00;47.30;;;;;;5093817;28;20182;-63
2022/01/18 07:59:27;;;;;;;;;;;15.00;47.30;;;;;;5093700;28;19915;-63
2022/01/18 08:01:52;;;;;;;;;;;15.00;47.30;;;;;;5128206;27;19939;-63
2022/01/18 08:04:18;;;;;;;;;;;15.00;47.30;;;;;;5095029;28;19957;-63
2022/01/18 08:06:43;;;;;;;;;;;15.00;47.30;;;;;;5094027;28;19909;-63
2022/01/18 08:09:08;;;;;;;;;;;15.00;47.30;;;;;;5127190;27;20391;-63
2022/01/18 08:11:34;;;;;;;;;;;15.00;47.20;;;;;;5093917;28;19919;-63
2022/01/18 08:14:01;;;;;;;;;;;15.00;47.30;;;;;;5095356;28;19912;-63
2022/01/18 08:18:52;;;;;;;;;;;15.00;47.30;;;;;;5093890;28;19943;-63
2022/01/18 08:21:18;;;;;;;;;;;15.00;47.30;;;;;;5093736;28;19914;-63
2022/01/18 08:23:43;;;;;;;;;;;15.00;47.30;;;;;;5093162;28;19908;-63
2022/01/18 08:26:08;;;;;;;;;;;15.00;47.30;;;;;;5110586;28;19916;-63
2022/01/18 08:28:34;;;;;;;;;;;15.00;47.40;;;;;;5094638;28;19968;-63
2022/01/18 08:30:59;;;;;;;;;;;15.00;47.40;;;;;;5094980;28;20365;-63
2022/01/18 08:33:25;;;;;;;;;;;15.00;47.40;;;;;;5092165;28;19995;-63
2022/01/18 08:35:51;;;;;;;;;;;15.00;47.40;;;;;;5093516;28;19908;-63
2022/01/18 08:38:16;;;;;;;;;;;15.00;47.30;;;;;;5093371;28;20341;-64
2022/01/18 08:40:41;;;;;;;;;;;15.00;47.30;;;;;;5092839;28;19931;-63
2022/01/18 08:43:07;;;;;;;;;;;15.00;47.30;;;;;;5076435;28;19912;-63
2022/01/18 08:45:32;;;;;;;;;;;15.00;47.30;;;;;;5093104;28;19908;-63
2022/01/18 08:47:58;;;;;;;;;;;15.00;47.40;;;;;;5094564;28;19955;-63
2022/01/18 08:50:23;;;;;;;;;;;15.00;47.40;;;;;;5092940;28;19969;-64
2022/01/18 08:52:51;;;;;;;;;;;15.00;47.50;;;;;;5093189;28;20339;-63
2022/01/18 08:55:17;;;;;;;;;;;15.00;47.50;;;;;;5092478;28;19908;-63
2022/01/18 08:57:42;;;;;;;;;;;15.00;47.50;;;;;;5093019;28;19909;-63
2022/01/18 09:00:10;;;;;;;;;;;15.00;47.50;;;;;;5094053;28;19908;-63
2022/01/18 09:02:35;;;;;;;;;;;15.00;47.50;;;;;;5092985;28;19931;-64
2022/01/18 09:05:01;;;;;;;;;;;15.00;47.50;;;;;;5094067;28;19912;-63
2022/01/18 09:07:26;;;;;;;;;;;15.00;47.50;;;;;;5094224;28;19908;-63
2022/01/18 09:10:01;;;;;;;;;;;14.90;47.50;;;;;;5093508;28;19916;-63
2022/01/18 09:12:27;;;;;;;;;;;15.00;47.60;;;;;;5100896;28;19908;-63
2022/01/18 09:14:52;;;;;;;;;;;15.00;47.60;;;;;;5126567;27;20383;-63
2022/01/18 09:17:18;;;;;;;;;;;15.00;47.60;;;;;;5092675;28;20485;-63
2022/01/18 09:19:43;;;;;;;;;;;15.00;47.50;;;;;;5093751;28;19912;-63
2022/01/18 09:22:09;;;;;;;;;;;15.00;47.50;;;;;;5092444;28;19915;-63
2022/01/18 09:24:34;;;;;;;;;;;15.00;47.60;;;;;;5091951;28;19919;-63
2022/01/18 09:27:00;;;;;;;;;;;15.00;47.50;;;;;;5092181;28;19919;-63
2022/01/18 09:29:25;;;;;;;;;;;15.00;47.50;;;;;;5126144;27;19920;-63
2022/01/18 09:31:51;;;;;;;;;;;15.00;47.60;;;;;;5109304;28;19916;-63
2022/01/18 09:34:16;;;;;;;;;;;15.00;47.60;;;;;;5092090;28;19915;-63
2022/01/18 09:36:42;;;;;;;;;;;15.00;47.50;;;;;;5093563;28;19948;-63
2022/01/18 09:39:07;;;;;;;;;;;15.00;47.50;;;;;;5074860;28;19915;-63
2022/01/18 09:41:39;;;;;;;;;;;15.10;47.60;;;;;;5093568;28;19908;-63
2022/01/18 09:44:04;;;;;;;;;;;15.10;47.60;;;;;;5098407;28;19976;-63
2022/01/18 09:46:30;;;;;;;;;;;15.10;47.60;;;;;;5093446;28;20006;-63
2022/01/18 09:48:56;;;;;;;;;;;15.00;47.60;;;;;;5093237;28;19916;-63
2022/01/18 09:51:21;;;;;;;;;;;15.00;47.60;;;;;;5091730;28;20291;-63
2022/01/18 09:53:47;;;;;;;;;;;15.00;47.70;;;;;;5092421;28;19935;-63
2022/01/18 09:56:13;;;;;;;;;;;15.00;47.70;;;;;;5091696;28;19965;-63
2022/01/18 09:58:38;;;;;;;;;;;15.00;47.70;;;;;;5091662;28;19961;-63
2022/01/18 10:01:04;;;;;;;;;;;15.00;48.30;;;;;;5093033;28;19912;-63
2022/01/18 10:03:30;;;;;;;;;;;15.00;47.70;;;;;;5125724;27;19911;-63
2022/01/18 10:05:56;;;;;;;;;;;15.00;47.70;;;;;;5091592;28;19912;-63
2022/01/18 10:08:21;;;;;;;;;;;15.00;47.70;;;;;;5108507;28;19935;-63
2022/01/18 10:10:54;;;;;;;;;;;15.00;47.70;;;;;;5108027;28;19912;-64
2022/01/18 10:13:29;;;;;;;;;;;14.90;47.80;;;;;;5074705;28;19908;-63
2022/01/18 10:16:04;;;;;;;;;;;15.00;47.80;;;;;;5091628;28;19981;-64
2022/01/18 10:18:38;;;;;;;;;;;15.00;47.80;;;;;;5092368;28;20256;-63
2022/01/18 10:21:06;;;;;;;;;;;15.00;47.80;;;;;;5099496;28;19908;-63
2022/01/18 10:23:31;;;;;;;;;;;15.00;47.70;;;;;;5091021;28;19955;-63
2022/01/18 10:25:58;;;;;;;;;;;15.00;47.80;;;;;;5091494;28;19958;-63
2022/01/18 10:28:33;;;;;;;;;;;15.00;47.80;;;;;;5092518;28;20269;-63
2022/01/18 10:31:03;;;;;;;;;;;15.00;47.80;;;;;;5091460;28;19908;-64
2022/01/18 10:33:35;;;;;;;;;;;15.00;47.90;;;;;;5125335;27;19912;-63
2022/01/18 10:36:01;;;;;;;;;;;15.00;47.90;;;;;;5098297;28;20387;-64
2022/01/18 10:38:27;;;;;;;;;;;15.00;47.80;;;;;;5091138;28;19958;-63
2022/01/18 10:40:52;;;;;;;;;;;15.00;47.80;;;;;;5125039;27;19958;-64
2022/01/18 10:43:27;;;;;;;;;;;15.00;47.80;;;;;;5092561;28;20307;-64
2022/01/18 10:46:09;;;;;;;;;;;15.00;47.90;;;;;;5092444;28;19991;-63
2022/01/18 10:48:36;;;;;;;;;;;15.00;47.90;;;;;;5092265;28;19919;-63
2022/01/18 10:51:02;;;;;;;;;;;15.00;47.90;;;;;;5091259;28;19923;-63
2022/01/18 10:53:27;;;;;;;;;;;15.00;47.80;;;;;;5090673;28;20372;-63
2022/01/18 10:56:11;;;;;;;;;;;15.10;47.80;;;;;;5090250;28;19965;-63
2022/01/18 10:58:45;;;;;;;;;;;15.10;47.80;;;;;;5092012;28;19912;-63
2022/01/18 11:01:20;;;;;;;;;;;15.00;47.80;;;;;;5092204;28;19961;-63
2022/01/18 11:04:04;;;;;;;;;;;15.10;47.90;;;;;;5090858;28;19942;-63
2022/01/18 11:06:30;;;;;;;;;;;15.10;47.90;;;;;;5092358;28;19912;-63
2022/01/18 11:08:55;;;;;;;;;;;15.10;47.90;;;;;;5090322;28;20364;-64
2022/01/18 11:11:24;;;;;;;;;;;15.00;47.80;;;;;;5124683;28;19920;-63
2022/01/18 11:13:50;;;;;;;;;;;15.10;47.90;;;;;;5090761;28;19919;-63
2022/01/18 11:16:25;;;;;;;;;;;15.00;47.90;;;;;;5073833;28;19920;-63
2022/01/18 11:18:50;;;;;;;;;;;15.00;47.90;;;;;;5093118;28;19962;-63
2022/01/18 11:21:19;;;;;;;;;;;15.00;47.90;;;;;;5091978;28;19951;-63
2022/01/18 11:23:44;;;;;;;;;;;15.10;48.00;;;;;;5091827;28;20252;-63
2022/01/18 11:26:10;;;;;;;;;;;15.00;48.00;;;;;;5090767;28;19919;-63
2022/01/18 11:28:37;;;;;;;;;;;15.00;48.00;;;;;;5090466;28;20364;-64
2022/01/18 11:31:02;;;;;;;;;;;15.00;48.00;;;;;;5124808;28;19908;-63
2022/01/18 11:33:28;;;;;;;;;;;15.10;48.00;;;;;;5091721;28;19908;-64
2022/01/18 11:35:58;;;;;;;;;;;15.10;48.00;;;;;;5090538;28;19953;-63
2022/01/18 11:38:42;;;;;;;;;;;15.10;48.00;;;;;;5073766;28;19914;-64
2022/01/18 11:41:19;;;;;;;;;;;15.00;48.00;;;;;;5090343;28;19908;-64
2022/01/18 11:43:45;;;;;;;;;;;15.00;48.00;;;;;;5090441;28;19912;-63
2022/01/18 11:46:22;;;;;;;;;;;15.00;48.00;;;;;;5124416;28;19999;-63
2022/01/18 11:48:48;;;;;;;;;;;15.00;48.10;;;;;;5091458;28;19919;-63
2022/01/18 11:51:18;;;;;;;;;;;15.00;48.10;;;;;;5090480;28;20252;-63
2022/01/18 11:53:53;;;;;;;;;;;15.00;48.00;;;;;;5091186;28;19908;-63
2022/01/18 11:56:32;;;;;;;;;;;15.00;48.00;;;;;;5098351;28;19919;-63
2022/01/18 11:59:26;;;;;;;;;;;15.10;48.10;;;;;;5091598;28;19908;-63
2022/01/18 12:01:55;;;;;;;;;;;15.10;48.00;;;;;;5090039;28;19931;-63
2022/01/18 12:07:11;;;;;;;;;;;15.10;48.10;;;;;;5099181;28;19999;-63
2022/01/18 12:09:37;;;;;;;;;;;15.00;48.00;;;;;;5093434;28;19916;-63
2022/01/18 12:12:04;;;;;;;;;;;15.10;48.20;;;;;;5095127;28;19973;-63
2022/01/18 12:14:33;;;;;;;;;;;15.00;48.10;;;;;;5093666;28;19912;-63
2022/01/18 12:17:14;;;;;;;;;;;15.00;48.20;;;;;;5076852;28;20299;-63
2022/01/18 12:19:47;;;;;;;;;;;15.00;48.80;;;;;;5093416;28;19924;-63
2022/01/18 12:22:13;;;;;;;;;;;15.10;48.20;;;;;;5076905;28;19908;-63
2022/01/18 12:24:43;;;;;;;;;;;15.10;48.20;;;;;;5094445;28;19914;-63
2022/01/18 12:27:29;;;;;;;;;;;15.10;48.20;;;;;;5101695;28;20332;-63
2022/01/18 12:30:25;;;;;;;;;;;15.10;48.20;;;;;;5094731;28;20047;-63
2022/01/18 12:33:09;;;;;;;;;;;15.00;48.10;;;;;;5101686;28;19978;-63
2022/01/18 12:35:35;;;;;;;;;;;15.10;48.80;;;;;;5093319;28;19999;-63
2022/01/18 12:38:01;;;;;;;;;;;15.10;48.10;;;;;;5127602;27;20368;-63
2022/01/18 12:40:28;;;;;;;;;;;15.10;48.20;;;;;;5076158;28;19940;-63
2022/01/18 12:45:26;;;;;;;;;;;15.10;48.10;;;;;;5094522;28;19980;-63
2022/01/18 12:47:55;;;;;;;;;;;15.10;48.20;;;;;;5094635;28;19908;-63
2022/01/18 12:50:23;;;;;;;;;;;15.10;48.20;;;;;;5094642;28;20007;-64
2022/01/18 12:52:52;;;;;;;;;;;15.10;48.20;;;;;;5093235;28;19909;-63
2022/01/18 12:55:24;;;;;;;;;;;15.10;48.20;;;;;;5093824;28;19954;-63
2022/01/18 12:57:59;;;;;;;;;;;15.10;48.20;;;;;;5094287;28;20396;-63
2022/01/18 13:00:24;;;;;;;;;;;15.10;48.20;;;;;;5093948;28;20003;-63
2022/01/18 13:02:49;;;;;;;;;;;15.10;48.30;;;;;;5094276;28;20535;-63
2022/01/18 13:05:15;;;;;;;;;;;15.10;48.20;;;;;;5094212;28;19923;-63
2022/01/18 13:07:53;;;;;;;;;;;15.10;48.20;;;;;;5094108;28;19909;-63
2022/01/18 13:10:18;;;;;;;;;;;15.10;48.20;;;;;;5092197;28;19934;-62
2022/01/18 13:12:45;;;;;;;;;;;15.10;48.30;;;;;;5093994;28;20007;-63
2022/01/18 13:15:11;;;;;;;;;;;15.00;48.20;;;;;;5092495;28;19912;-63
2022/01/18 13:23:21;;;;;;;;;;;15.00;48.40;;;;;;5093830;28;20334;-63
2022/01/18 13:25:52;;;;;;;;;;;15.00;48.60;;;;;;5091777;28;20332;-63
2022/01/18 13:28:18;;;;;;;;;;;14.90;48.70;;;;;;5099401;28;19990;-63
2022/01/18 13:30:44;;;;;;;;;;;14.90;48.70;;;;;;5109284;27;19912;-63
2022/01/18 13:33:11;;;;;;;;;;;14.90;48.70;;;;;;5092264;28;19993;-63
2022/01/18 13:35:37;;;;;;;;;;;14.90;48.80;;;;;;5092190;28;19908;-64
2022/01/18 13:38:03;;;;;;;;;;;14.90;48.90;;;;;;5093518;28;19914;-63
2022/01/18 13:40:30;;;;;;;;;;;14.90;49.00;;;;;;5091482;28;19914;-63
2022/01/18 13:43:06;;;;;;;;;;;14.90;49.00;;;;;;5093420;28;19912;-63
2022/01/18 13:45:31;;;;;;;;;;;14.90;49.00;;;;;;5092053;28;19908;-63
2022/01/18 13:47:58;;;;;;;;;;;14.90;49.00;;;;;;5092031;28;19916;-63
2022/01/18 13:50:42;;;;;;;;;;;14.90;49.00;;;;;;5093016;28;19919;-63
2022/01/18 13:53:13;;;;;;;;;;;14.90;49.10;;;;;;5093253;28;19908;-63
2022/01/18 13:55:49;;;;;;;;;;;14.90;49.10;;;;;;5125397;27;19915;-63
2022/01/18 13:58:21;;;;;;;;;;;14.90;49.10;;;;;;5093121;28;19912;-63
2022/01/18 14:00:47;;;;;;;;;;;14.90;49.10;;;;;;5091597;28;19919;-63
2022/01/18 14:03:28;;;;;;;;;;;14.90;49.10;;;;;;5092976;28;20356;-63
2022/01/18 14:05:54;;;;;;;;;;;14.80;49.10;;;;;;5091766;28;19909;-64
2022/01/18 14:08:19;;;;;;;;;;;14.80;49.10;;;;;;5091799;28;19912;-63
2022/01/18 14:10:45;;;;;;;;;;;14.80;49.10;;;;;;5092677;28;19960;-63
2022/01/18 14:13:26;;;;;;;;;;;14.80;49.20;;;;;;5125643;27;19924;-63
2022/01/18 14:15:51;;;;;;;;;;;14.80;49.20;;;;;;5092770;28;19908;-63
2022/01/18 14:18:16;;;;;;;;;;;14.80;49.10;;;;;;5092568;28;19988;-63
2022/01/18 14:20:42;;;;;;;;;;;14.90;49.20;;;;;;5092638;28;19915;-63
2022/01/18 14:23:18;;;;;;;;;;;14.80;49.20;;;;;;5092871;28;19915;-62
2022/01/18 14:25:43;;;;;;;;;;;14.90;49.20;;;;;;5090954;28;19915;-63
2022/01/18 14:28:15;;;;;;;;;;;14.90;49.20;;;;;;5108163;28;19912;-63
2022/01/18 14:30:43;;;;;;;;;;;14.90;49.20;;;;;;5090972;28;20396;-63
2022/01/18 14:33:12;;;;;;;;;;;14.90;49.20;;;;;;5091452;28;19908;-63
2022/01/18 14:35:42;;;;;;;;;;;14.90;49.20;;;;;;5091352;28;19908;-63
2022/01/18 14:38:08;;;;;;;;;;;14.90;49.20;;;;;;5091379;28;19908;-63
2022/01/18 14:40:38;;;;;;;;;;;14.90;49.20;;;;;;5090891;28;19999;-63
2022/01/18 14:43:10;;;;;;;;;;;14.90;49.20;;;;;;5091219;28;19908;-64
2022/01/18 14:45:39;;;;;;;;;;;14.90;49.20;;;;;;5099220;28;19912;-64
2022/01/18 14:48:08;;;;;;;;;;;14.90;49.00;;;;;;5092736;28;19995;-64
2022/01/18 14:50:34;;;;;;;;;;;15.00;49.00;;;;;;5092202;28;19912;-64
2022/01/18 14:52:59;;;;;;;;;;;15.00;48.90;;;;;;5091096;28;19908;-63
2022/01/18 14:55:26;;;;;;;;;;;15.00;48.80;;;;;;5091786;28;19961;-64
2022/01/18 14:57:51;;;;;;;;;;;15.10;48.80;;;;;;5090941;28;20387;-64
2022/01/18 15:00:17;;;;;;;;;;;15.10;48.80;;;;;;5090916;28;19908;-63
2022/01/18 15:02:43;;;;;;;;;;;15.10;48.70;;;;;;5092387;28;19908;-63
2022/01/18 15:05:09;;;;;;;;;;;15.10;48.70;;;;;;5090900;28;19916;-63
2022/01/18 15:07:34;;;;;;;;;;;15.10;48.70;;;;;;5091163;28;20280;-63
2022/01/18 15:10:00;;;;;;;;;;;15.10;48.70;;;;;;5073716;28;19916;-63
2022/01/18 15:12:26;;;;;;;;;;;15.10;48.70;;;;;;5125078;28;20528;-63
2022/01/18 15:14:51;;;;;;;;;;;15.10;48.60;;;;;;5090977;28;19915;-63
2022/01/18 15:17:17;;;;;;;;;;;15.10;48.70;;;;;;5092235;28;19912;-63
2022/01/18 15:19:42;;;;;;;;;;;15.10;48.70;;;;;;5091939;28;19919;-63
2022/01/18 15:22:08;;;;;;;;;;;15.10;48.70;;;;;;5092377;28;19911;-63
2022/01/18 15:24:34;;;;;;;;;;;15.10;48.70;;;;;;5090373;28;19977;-63
2022/01/18 15:26:59;;;;;;;;;;;15.10;48.70;;;;;;5092212;28;19930;-64
2022/01/18 15:29:26;;;;;;;;;;;15.10;48.70;;;;;;5107578;28;20349;-63
2022/01/18 15:31:51;;;;;;;;;;;15.10;48.70;;;;;;5090882;28;20110;-63
2022/01/18 15:34:17;;;;;;;;;;;15.00;48.70;;;;;;5124791;28;19944;-63
2022/01/18 15:36:42;;;;;;;;;;;15.00;48.70;;;;;;5092172;28;19915;-63
2022/01/18 15:39:07;;;;;;;;;;;15.10;48.70;;;;;;5091475;28;19957;-63